createdAt,value
2018-12-23T00:01:56.088Z,101049.27
2018-12-23T00:04:27.144Z,101046.15
2018-12-23T00:06:58.142Z,101034.30
2018-12-23T00:09:27.241Z,101036.64
2018-12-23T00:11:58.389Z,101036.52
2018-12-23T00:14:29.263Z,101035.89
2018-12-23T00:17:03.079Z,101028.56
2018-12-23T00:19:34.569Z,101029.94
2018-12-23T00:22:05.567Z,101026.69
2018-12-23T00:24:38.887Z,101045.96
2018-12-23T00:27:10.334Z,101053.39
2018-12-23T00:29:41.279Z,101055.19
2018-12-23T00:32:14.900Z,101049.31
2018-12-23T00:34:46.475Z,101057.39
2018-12-23T00:37:17.574Z,101065.34
2018-12-23T00:39:48.423Z,101073.00
2018-12-23T00:42:22.154Z,101071.55
2018-12-23T00:44:53.686Z,101076.88
2018-12-23T00:47:25.407Z,101078.98
2018-12-23T00:49:56.402Z,101077.83
2018-12-23T00:52:27.429Z,101079.81
2018-12-23T00:54:58.402Z,101085.38
2018-12-23T00:57:32.111Z,101092.08
2018-12-23T01:00:04.941Z,101098.19
2018-12-23T01:02:36.691Z,101103.20
2018-12-23T01:05:07.994Z,101106.14
2018-12-23T01:07:38.753Z,101102.27
2018-12-23T01:10:09.863Z,101112.11
2018-12-23T01:12:40.649Z,101120.98
2018-12-23T01:15:11.915Z,101114.30
2018-12-23T01:17:42.603Z,101118.47
2018-12-23T01:20:14.036Z,101113.33
2018-12-23T01:22:44.991Z,101124.37
2018-12-23T01:25:16.128Z,101129.29
2018-12-23T01:27:50.712Z,101124.22
2018-12-23T01:30:21.943Z,101129.49
2018-12-23T01:32:53.059Z,101126.65
2018-12-23T01:35:26.485Z,101131.89
2018-12-23T01:37:58.164Z,101121.20
2018-12-23T01:40:29.896Z,101121.63
2018-12-23T01:43:01.111Z,101114.51
2018-12-23T01:45:34.861Z,101114.81
2018-12-23T01:48:06.276Z,101131.77
2018-12-23T01:50:37.088Z,101137.98
2018-12-23T01:53:08.210Z,101141.86
2018-12-23T01:55:41.636Z,101150.47
2018-12-23T01:58:13.131Z,101152.84
2018-12-23T02:00:44.171Z,101147.83
2018-12-23T02:03:15.064Z,101145.73
2018-12-23T02:05:46.381Z,101148.58
2018-12-23T02:08:17.976Z,101147.52
2018-12-23T02:10:49.124Z,101149.42
2018-12-23T02:13:20.455Z,101152.53
2018-12-23T02:15:51.387Z,101148.14
2018-12-23T02:18:22.467Z,101151.17
2018-12-23T02:20:53.494Z,101143.22
2018-12-23T02:23:24.506Z,101128.97
2018-12-23T02:25:55.496Z,101127.47
2018-12-23T02:28:26.627Z,101128.52
2018-12-23T02:30:57.652Z,101130.62
2018-12-23T02:33:28.787Z,101125.39
2018-12-23T02:36:00.507Z,101113.54
2018-12-23T02:38:31.615Z,101107.99
2018-12-23T02:41:02.791Z,101108.62
2018-12-23T02:43:33.751Z,101123.38
2018-12-23T02:46:07.103Z,101125.69
2018-12-23T02:48:38.540Z,101123.27
2018-12-23T02:51:09.683Z,101126.00
2018-12-23T02:53:40.804Z,101124.21
2018-12-23T02:56:11.839Z,101128.63
2018-12-23T02:58:42.929Z,101132.89
2018-12-23T03:01:14.161Z,101135.41
2018-12-23T03:03:44.902Z,101136.78
2018-12-23T03:06:16.370Z,101141.87
2018-12-23T03:08:47.316Z,101143.35
2018-12-23T03:11:18.046Z,101139.55
2018-12-23T03:13:49.059Z,101141.98
2018-12-23T03:16:20.361Z,101145.63
2018-12-23T03:18:51.510Z,101139.11
2018-12-23T03:21:25.149Z,101146.78
2018-12-23T03:23:56.412Z,101135.02
2018-12-23T03:26:28.242Z,101142.48
2018-12-23T03:28:59.573Z,101137.26
2018-12-23T03:36:35.176Z,101140.47
2018-12-23T03:39:06.763Z,101135.88
2018-12-23T03:41:40.952Z,101133.77
2018-12-23T03:44:12.113Z,101138.14
2018-12-23T03:46:43.162Z,101135.31
2018-12-23T03:49:13.971Z,101136.36
2018-12-23T03:51:45.441Z,101123.38
2018-12-23T03:54:16.506Z,101114.16
2018-12-23T03:56:48.304Z,101116.89
2018-12-23T03:59:19.364Z,101119.30
2018-12-23T04:01:50.495Z,101118.45
2018-12-23T04:04:23.889Z,101122.38
2018-12-23T04:06:55.537Z,101115.05
2018-12-23T04:09:26.291Z,101106.05
2018-12-23T04:11:57.232Z,101113.83
2018-12-23T04:14:28.578Z,101109.16
2018-12-23T04:16:59.512Z,101113.77
2018-12-23T04:19:30.747Z,101112.93
2018-12-23T04:22:01.467Z,101118.06
2018-12-23T04:24:32.607Z,101109.97
2018-12-23T04:27:03.784Z,101114.05
2018-12-23T04:29:34.817Z,101110.56
2018-12-23T04:32:06.330Z,101109.97
2018-12-23T04:34:38.334Z,101116.25
2018-12-23T04:37:09.840Z,101110.59
2018-12-23T04:39:41.093Z,101115.55
2018-12-23T04:42:11.903Z,101109.40
2018-12-23T04:44:45.632Z,101114.42
2018-12-23T04:47:16.979Z,101123.33
2018-12-23T04:49:47.854Z,101127.83
2018-12-23T04:52:17.124Z,101124.27
2018-12-23T04:54:48.157Z,101120.20
2018-12-23T04:57:19.206Z,101122.52
2018-12-23T04:59:50.932Z,101115.29
2018-12-23T05:02:22.219Z,101108.48
2018-12-23T05:04:53.345Z,101110.68
2018-12-23T05:07:26.863Z,101106.50
2018-12-23T05:10:00.703Z,101102.31
2018-12-23T05:12:32.231Z,101107.30
2018-12-23T05:15:03.527Z,101109.72
2018-12-23T05:17:35.161Z,101104.34
2018-12-23T05:20:06.185Z,101108.64
2018-12-23T05:22:37.159Z,101114.64
2018-12-23T05:25:10.759Z,101105.08
2018-12-23T05:27:44.667Z,101105.19
2018-12-23T05:30:16.453Z,101113.03
2018-12-23T05:32:48.206Z,101110.10
2018-12-23T05:42:55.260Z,101105.08
2018-12-23T05:45:26.163Z,101110.21
2018-12-23T05:48:01.644Z,101109.38
2018-12-23T05:50:33.321Z,101106.23
2018-12-23T05:53:02.571Z,101105.16
2018-12-23T05:55:32.253Z,101109.89
2018-12-23T05:58:05.969Z,101108.74
2018-12-23T06:00:37.501Z,101109.92
2018-12-23T06:03:08.301Z,101112.93
2018-12-23T06:05:39.180Z,101109.89
2018-12-23T06:08:10.187Z,101115.13
2018-12-23T06:10:41.003Z,101119.73
2018-12-23T06:13:11.867Z,101120.26
2018-12-23T06:15:42.883Z,101128.22
2018-12-23T06:18:13.816Z,101135.44
2018-12-23T06:20:44.747Z,101131.25
2018-12-23T06:23:18.306Z,101136.38
2018-12-23T06:25:49.751Z,101146.22
2018-12-23T06:28:20.629Z,101137.01
2018-12-23T06:30:51.785Z,101124.66
2018-12-23T06:33:22.951Z,101125.42
2018-12-23T06:35:53.944Z,101132.75
2018-12-23T06:38:24.881Z,101131.39
2018-12-23T06:40:56.012Z,101133.77
2018-12-23T06:43:27.111Z,101127.80
2018-12-23T06:45:58.194Z,101130.34
2018-12-23T06:48:29.457Z,101128.14
2018-12-23T06:51:00.756Z,101124.38
2018-12-23T06:53:30.437Z,101131.80
2018-12-23T06:56:01.482Z,101126.05
2018-12-23T06:58:32.435Z,101126.44
2018-12-23T07:01:03.431Z,101123.33
2018-12-23T07:03:36.995Z,101133.62
2018-12-23T07:06:09.039Z,101130.44
2018-12-23T07:08:40.501Z,101137.04
2018-12-23T07:11:11.519Z,101137.25
2018-12-23T07:13:42.445Z,101142.37
2018-12-23T07:16:13.473Z,101142.27
2018-12-23T07:18:44.298Z,101136.83
2018-12-23T07:21:17.920Z,101137.67
2018-12-23T07:24:27.763Z,101136.52
2018-12-23T07:26:55.459Z,101143.63
2018-12-23T07:29:23.493Z,101152.53
2018-12-23T07:31:51.654Z,101142.70
2018-12-23T07:34:19.725Z,101153.19
2018-12-23T07:36:49.682Z,101152.98
2018-12-23T07:39:17.959Z,101155.08
2018-12-23T07:41:46.181Z,101151.44
2018-12-23T07:44:14.324Z,101147.88
2018-12-23T07:46:42.379Z,101155.95
2018-12-23T07:49:10.322Z,101155.31
2018-12-23T07:51:38.621Z,101150.95
2018-12-23T07:54:07.137Z,101155.66
2018-12-23T07:56:35.276Z,101148.15
2018-12-23T07:59:04.200Z,101150.77
2018-12-23T08:01:32.506Z,101147.12
2018-12-23T08:04:01.075Z,101152.15
2018-12-23T08:06:29.102Z,101150.05
2018-12-23T08:08:57.110Z,101149.76
2018-12-23T08:11:25.990Z,101149.89
2018-12-23T08:13:53.975Z,101148.41
2018-12-23T08:16:22.442Z,101147.71
2018-12-23T08:18:51.297Z,101156.30
2018-12-23T08:21:19.825Z,101153.36
2018-12-23T08:23:47.514Z,101149.09
2018-12-23T08:26:16.192Z,101155.05
2018-12-23T08:28:44.526Z,101148.67
2018-12-23T08:31:12.559Z,101152.03
2018-12-23T08:33:40.960Z,101152.47
2018-12-23T08:36:09.224Z,101148.08
2018-12-23T08:38:37.045Z,101142.41
2018-12-23T08:41:05.356Z,101149.27
2018-12-23T08:43:33.577Z,101148.63
2018-12-23T08:46:01.378Z,101144.75
2018-12-23T08:48:29.603Z,101154.52
2018-12-23T08:50:57.858Z,101146.25
2018-12-23T08:53:25.860Z,101138.37
2018-12-23T08:55:53.923Z,101137.33
2018-12-23T08:58:22.227Z,101136.18
2018-12-23T09:00:50.041Z,101138.56
2018-12-23T09:03:19.052Z,101137.20
2018-12-23T09:05:47.271Z,101137.63
2018-12-23T09:08:15.566Z,101139.82
2018-12-23T09:10:43.638Z,101132.25
2018-12-23T09:13:12.166Z,101134.26
2018-12-23T09:15:40.451Z,101132.89
2018-12-23T09:18:09.044Z,101127.30
2018-12-23T09:20:36.779Z,101129.41
2018-12-23T09:23:05.862Z,101122.97
2018-12-23T09:25:34.141Z,101125.39
2018-12-23T09:28:02.409Z,101114.38
2018-12-23T09:30:30.963Z,101116.88
2018-12-23T09:32:58.914Z,101111.73
2018-12-23T09:35:27.145Z,101113.38
2018-12-23T09:38:01.376Z,101112.36
2018-12-23T09:40:25.754Z,101114.95
2018-12-23T09:42:54.263Z,101112.92
2018-12-23T09:45:22.299Z,101104.73
2018-12-23T09:47:50.385Z,101096.95
2018-12-23T09:50:19.007Z,101093.36
2018-12-23T09:52:47.202Z,101092.19
2018-12-23T09:55:16.118Z,101092.39
2018-12-23T09:57:44.133Z,101086.93
2018-12-23T10:00:12.313Z,101090.77
2018-12-23T10:02:40.358Z,101086.14
2018-12-23T10:05:08.366Z,101076.46
2018-12-23T10:07:36.241Z,101072.44
2018-12-23T10:10:05.194Z,101069.06
2018-12-23T10:12:33.458Z,101070.33
2018-12-23T10:15:01.903Z,101073.47
2018-12-23T10:17:29.858Z,101069.41
2018-12-23T10:19:57.537Z,101069.06
2018-12-23T10:22:25.833Z,101062.23
2018-12-23T10:24:53.887Z,101049.89
2018-12-23T10:27:22.544Z,101049.77
2018-12-23T10:29:50.614Z,101044.45
2018-12-23T10:32:19.051Z,101037.49
2018-12-23T10:34:50.350Z,101034.10
2018-12-23T10:37:18.691Z,101028.15
2018-12-23T10:39:47.046Z,101026.86
2018-12-23T10:42:15.527Z,101022.27
2018-12-23T10:44:43.808Z,101011.83
2018-12-23T10:47:13.041Z,101006.20
2018-12-23T10:49:40.687Z,101004.03
2018-12-23T10:52:09.498Z,100999.77
2018-12-23T10:54:37.800Z,100993.77
2018-12-23T10:57:05.973Z,100986.06
2018-12-23T10:59:34.073Z,100981.90
2018-12-23T11:02:01.883Z,100982.80
2018-12-23T11:04:30.165Z,100975.06
2018-12-23T11:06:58.755Z,100973.56
2018-12-23T11:09:28.325Z,100966.56
2018-12-23T11:11:57.267Z,100965.72
2018-12-23T11:14:25.888Z,100946.72
2018-12-23T11:16:56.485Z,100944.45
2018-12-23T11:19:25.135Z,100938.31
2018-12-23T11:21:53.571Z,100929.64
2018-12-23T11:24:21.800Z,100925.41
2018-12-23T11:26:50.126Z,100919.63
2018-12-23T11:29:18.458Z,100907.31
2018-12-23T11:31:46.167Z,100907.08
2018-12-23T11:34:14.542Z,100895.93
2018-12-23T11:36:43.362Z,100895.17
2018-12-23T11:39:11.896Z,100888.26
2018-12-23T11:41:40.736Z,100886.80
2018-12-23T11:44:09.053Z,100882.33
2018-12-23T11:46:36.974Z,100875.79
2018-12-23T11:49:04.813Z,100876.69
2018-12-23T11:51:32.948Z,100875.02
2018-12-23T11:54:00.955Z,100867.91
2018-12-23T11:56:29.277Z,100866.06
2018-12-23T11:59:00.347Z,100866.22
2018-12-23T12:01:28.090Z,100860.45
2018-12-23T12:03:56.429Z,100859.16
2018-12-23T12:06:24.485Z,100847.21
2018-12-23T12:08:52.167Z,100845.94
2018-12-23T12:11:20.235Z,100845.84
2018-12-23T12:13:48.022Z,100842.04
2018-12-23T12:16:15.990Z,100836.37
2018-12-23T12:18:43.684Z,100835.00
2018-12-23T12:21:12.920Z,100835.89
2018-12-23T12:23:41.609Z,100824.17
2018-12-23T12:26:10.625Z,100816.13
2018-12-23T12:28:38.779Z,100808.84
2018-12-23T12:31:06.789Z,100802.77
2018-12-23T12:33:35.054Z,100801.13
2018-12-23T12:36:03.241Z,100791.65
2018-12-23T12:38:31.831Z,100793.61
2018-12-23T12:40:59.974Z,100784.22
2018-12-23T12:43:27.691Z,100783.35
2018-12-23T12:46:00.557Z,100781.89
2018-12-23T12:48:25.175Z,100780.08
2018-12-23T12:50:53.757Z,100776.30
2018-12-23T12:53:21.599Z,100777.14
2018-12-23T12:55:49.834Z,100769.31
2018-12-23T12:58:18.396Z,100765.99
2018-12-23T13:00:46.546Z,100767.59
2018-12-23T13:03:14.564Z,100769.17
2018-12-23T13:05:42.839Z,100767.98
2018-12-23T13:08:10.539Z,100758.65
2018-12-23T13:10:39.376Z,100754.16
2018-12-23T13:13:07.622Z,100747.00
2018-12-23T13:15:36.027Z,100745.20
2018-12-23T13:18:04.341Z,100733.67
2018-12-23T13:20:32.359Z,100740.42
2018-12-23T13:23:00.905Z,100732.93
2018-12-23T13:25:28.859Z,100726.50
2018-12-23T13:27:56.903Z,100721.94
2018-12-23T13:30:25.500Z,100723.75
2018-12-23T13:32:54.081Z,100714.13
2018-12-23T13:35:22.142Z,100713.20
2018-12-23T13:37:50.255Z,100705.61
2018-12-23T13:41:32.819Z,100699.70
2018-12-23T13:45:02.345Z,100696.89
2018-12-23T13:48:53.027Z,100683.46
2018-12-23T13:52:21.049Z,100673.69
2018-12-23T13:55:29.647Z,100665.86
2018-12-23T13:58:39.593Z,100665.17
2018-12-23T14:01:55.896Z,100652.98
2018-12-23T14:05:10.803Z,100649.72
2018-12-23T14:08:52.326Z,100646.99
2018-12-23T14:11:53.569Z,100636.20
2018-12-23T14:14:22.155Z,100632.58
2018-12-23T14:16:51.038Z,100626.26
2018-12-23T14:19:19.455Z,100625.90
2018-12-23T14:21:47.890Z,100612.84
2018-12-23T14:24:16.326Z,100610.19
2018-12-23T14:26:45.083Z,100599.44
2018-12-23T14:29:13.546Z,100601.34
2018-12-23T14:31:41.379Z,100586.61
2018-12-23T14:34:09.810Z,100573.19
2018-12-23T14:36:37.621Z,100568.27
2018-12-23T14:39:08.221Z,100560.47
2018-12-23T14:41:36.369Z,100558.03
2018-12-23T14:44:04.191Z,100558.36
2018-12-23T14:46:32.372Z,100556.45
2018-12-23T14:49:00.319Z,100546.66
2018-12-23T14:51:28.354Z,100539.53
2018-12-23T14:53:56.830Z,100534.02
2018-12-23T14:56:25.071Z,100534.09
2018-12-23T14:58:53.499Z,100536.81
2018-12-23T15:01:21.783Z,100524.91
2018-12-23T15:03:49.467Z,100530.53
2018-12-23T15:06:17.732Z,100524.84
2018-12-23T15:08:45.973Z,100514.01
2018-12-23T15:11:14.809Z,100517.80
2018-12-23T15:13:42.795Z,100516.64
2018-12-23T15:16:11.423Z,100510.75
2018-12-23T15:18:42.360Z,100514.61
2018-12-23T15:21:10.464Z,100515.97
2018-12-23T15:23:38.941Z,100496.33
2018-12-23T15:26:07.715Z,100495.96
2018-12-23T15:28:35.978Z,100490.51
2018-12-23T15:31:04.136Z,100488.25
2018-12-23T15:33:32.528Z,100485.82
2018-12-23T15:36:01.411Z,100479.73
2018-12-23T15:38:30.074Z,100468.17
2018-12-23T15:40:58.031Z,100458.77
2018-12-23T15:43:26.480Z,100449.81
2018-12-23T15:45:54.649Z,100456.64
2018-12-23T15:48:22.613Z,100451.41
2018-12-23T15:50:50.586Z,100446.73
2018-12-23T15:53:18.416Z,100449.76
2018-12-23T15:55:46.914Z,100443.77
2018-12-23T15:58:15.106Z,100433.00
2018-12-23T16:00:42.885Z,100422.56
2018-12-23T16:03:11.562Z,100424.63
2018-12-23T16:05:40.150Z,100423.93
2018-12-23T16:08:08.875Z,100419.08
2018-12-23T16:10:36.995Z,100405.61
2018-12-23T16:13:05.047Z,100397.50
2018-12-23T16:15:33.899Z,100396.08
2018-12-23T16:18:02.003Z,100395.01
2018-12-23T16:20:30.277Z,100404.61
2018-12-23T16:22:58.459Z,100392.74
2018-12-23T16:25:26.539Z,100397.13
2018-12-23T16:27:55.665Z,100375.98
2018-12-23T16:30:24.204Z,100358.37
2018-12-23T16:32:52.413Z,100351.02
2018-12-23T16:35:20.478Z,100350.09
2018-12-23T16:37:48.350Z,100343.98
2018-12-23T16:40:17.314Z,100345.65
2018-12-23T16:42:45.429Z,100345.26
2018-12-23T16:45:13.283Z,100339.96
2018-12-23T16:47:41.822Z,100339.20
2018-12-23T16:50:09.866Z,100330.42
2018-12-23T16:52:38.249Z,100326.87
2018-12-23T16:55:06.717Z,100312.94
2018-12-23T16:57:34.637Z,100311.20
2018-12-23T17:00:03.405Z,100307.61
2018-12-23T17:02:31.564Z,100308.77
2018-12-23T17:04:59.594Z,100302.55
2018-12-23T17:07:27.886Z,100300.35
2018-12-23T17:09:55.948Z,100297.86
2018-12-23T17:12:23.950Z,100294.13
2018-12-23T17:14:51.978Z,100299.88
2018-12-23T17:17:22.470Z,100296.86
2018-12-23T17:19:51.198Z,100290.95
2018-12-23T17:22:21.586Z,100292.17
2018-12-23T17:24:49.823Z,100292.62
2018-12-23T17:27:18.557Z,100295.41
2018-12-23T17:29:46.719Z,100295.64
2018-12-23T17:32:14.749Z,100291.61
2018-12-23T17:34:43.376Z,100281.23
2018-12-23T17:37:11.985Z,100274.52
2018-12-23T17:39:40.103Z,100262.69
2018-12-23T17:42:08.978Z,100260.68
2018-12-23T17:44:36.823Z,100255.23
2018-12-23T17:47:05.433Z,100255.58
2018-12-23T17:49:33.892Z,100247.94
2018-12-23T17:52:01.825Z,100235.28
2018-12-23T17:54:30.103Z,100248.41
2018-12-23T17:56:58.048Z,100259.47
2018-12-23T17:59:26.618Z,100248.62
2018-12-23T18:01:55.950Z,100249.45
2018-12-23T18:04:23.745Z,100241.27
2018-12-23T18:06:52.124Z,100237.42
2018-12-23T18:09:20.457Z,100240.53
2018-12-23T18:11:48.285Z,100239.75
2018-12-23T18:14:16.642Z,100229.83
2018-12-23T18:16:44.580Z,100226.36
2018-12-23T18:19:13.634Z,100228.17
2018-12-23T18:21:42.031Z,100234.84
2018-12-23T18:24:10.666Z,100218.78
2018-12-23T18:26:45.096Z,100212.64
2018-12-23T18:29:10.138Z,100201.97
2018-12-23T18:31:38.016Z,100202.18
2018-12-23T18:34:06.545Z,100185.52
2018-12-23T18:36:34.486Z,100183.39
2018-12-23T18:39:04.997Z,100175.20
2018-12-23T18:41:34.593Z,100171.73
2018-12-23T18:44:02.394Z,100183.09
2018-12-23T18:46:30.773Z,100182.16
2018-12-23T18:48:59.009Z,100182.55
2018-12-23T18:51:27.539Z,100183.95
2018-12-23T18:53:56.460Z,100181.42
2018-12-23T18:56:42.325Z,100177.38
2018-12-23T18:59:11.800Z,100172.94
2018-12-23T19:01:47.208Z,100165.94
2018-12-23T19:04:15.304Z,100169.50
2018-12-23T19:06:43.579Z,100167.89
2018-12-23T19:09:26.240Z,100159.25
2018-12-23T19:12:57.949Z,100150.05
2018-12-23T19:16:16.130Z,100152.96
2018-12-23T19:20:05.620Z,100150.43
2018-12-23T19:23:36.998Z,100157.88
2018-12-23T19:27:02.221Z,100148.66
2018-12-23T19:30:18.583Z,100150.91
2018-12-23T19:33:30.072Z,100144.66
2018-12-23T19:37:13.311Z,100138.14
2018-12-23T19:40:50.468Z,100138.22
2018-12-23T19:44:24.084Z,100130.70
2018-12-23T19:48:00.887Z,100132.27
2018-12-23T19:51:35.017Z,100121.48
2018-12-23T19:55:31.079Z,100123.14
2018-12-23T19:59:11.840Z,100113.67
2018-12-23T20:02:43.156Z,100105.12
2018-12-23T20:06:20.461Z,100098.88
2018-12-23T20:09:19.597Z,100082.38
2018-12-23T20:12:46.263Z,100073.98
2018-12-23T20:16:14.119Z,100076.47
2018-12-23T20:19:52.117Z,100081.92
2018-12-23T20:23:04.690Z,100074.36
2018-12-23T20:26:05.174Z,100063.11
2018-12-23T20:30:01.412Z,100077.95
2018-12-23T20:33:25.782Z,100063.31
2018-12-23T20:36:37.898Z,100064.50
2018-12-23T20:39:51.632Z,100061.81
2018-12-23T20:42:58.926Z,100051.68
2018-12-23T20:46:15.782Z,100048.03
2018-12-23T20:50:05.683Z,100040.20
2018-12-23T20:53:42.197Z,100035.60
2018-12-23T20:57:14.319Z,100013.87
2018-12-23T21:00:49.159Z,100010.99
2018-12-23T21:04:26.588Z,100022.31
2018-12-23T21:07:48.727Z,100027.34
2018-12-23T21:11:15.977Z,100013.31
2018-12-23T21:14:20.669Z,100004.06
2018-12-23T21:17:55.574Z,100001.69
2018-12-23T21:21:26.017Z,100013.51
2018-12-23T21:24:47.557Z,100004.87
2018-12-23T21:28:23.165Z,100007.47
2018-12-23T21:31:50.630Z,100007.47
2018-12-23T21:35:18.936Z,100010.88
2018-12-23T21:38:51.792Z,100009.87
2018-12-23T21:42:13.509Z,100011.25
2018-12-23T21:46:09.465Z,100006.98
2018-12-23T21:49:40.566Z,100013.42
2018-12-23T21:53:16.191Z,100007.41
2018-12-23T21:56:41.506Z,100000.10
2018-12-23T21:59:49.094Z,99992.81
2018-12-23T22:03:04.738Z,99981.90
2018-12-23T22:06:32.809Z,99987.66
2018-12-23T22:09:47.469Z,99992.09
2018-12-23T22:13:10.650Z,99994.34
2018-12-23T22:15:38.443Z,99992.48
2018-12-23T22:18:06.955Z,99979.09
2018-12-23T22:20:35.523Z,99981.34
2018-12-23T22:23:04.034Z,99986.02
2018-12-23T22:25:32.286Z,99973.66
2018-12-23T22:28:00.241Z,99966.89
2018-12-23T22:30:28.605Z,99966.06
2018-12-23T22:32:56.766Z,99953.55
2018-12-23T22:35:24.583Z,99955.48
2018-12-23T22:37:52.946Z,99960.70
2018-12-23T22:40:22.183Z,99972.26
2018-12-23T22:42:50.932Z,99961.05
2018-12-23T22:45:19.077Z,99962.16
2018-12-23T22:47:47.444Z,99951.81
2018-12-23T22:50:15.361Z,99933.22
2018-12-23T22:52:44.062Z,99941.72
2018-12-23T22:55:12.536Z,99938.77
2018-12-23T22:57:40.954Z,99936.86
2018-12-23T23:00:09.089Z,99933.86
2018-12-23T23:02:38.150Z,99936.33
2018-12-23T23:05:06.687Z,99933.33
2018-12-23T23:07:34.669Z,99937.23
2018-12-23T23:10:02.973Z,99942.20
2018-12-23T23:12:30.672Z,99935.10
2018-12-23T23:14:59.021Z,99928.80
2018-12-23T23:17:26.738Z,99917.31
2018-12-23T23:19:55.368Z,99917.05
2018-12-23T23:22:23.421Z,99920.88
2018-12-23T23:24:51.501Z,99897.34
2018-12-23T23:27:19.482Z,99925.52
2018-12-23T23:29:47.631Z,99945.50
2018-12-23T23:32:15.995Z,99963.03
2018-12-23T23:34:43.978Z,99963.51
2018-12-23T23:37:11.797Z,99983.47
2018-12-23T23:39:39.934Z,99996.06
2018-12-23T23:42:08.575Z,100038.75
2018-12-23T23:44:37.723Z,100056.13
2018-12-23T23:47:05.693Z,100068.08
2018-12-23T23:49:34.350Z,100095.03
2018-12-23T23:52:02.964Z,100082.06
2018-12-23T23:54:31.453Z,100101.14
2018-12-23T23:57:00.248Z,100118.81
2018-12-23T23:59:28.791Z,100136.41
